createdAt,value
2018-01-11T00:01:15.884Z,143.33
2018-01-11T00:03:43.360Z,129.23
2018-01-11T00:06:10.861Z,149.27
2018-01-11T00:08:38.328Z,148.57
2018-01-11T00:11:05.824Z,179.97
2018-01-11T00:13:33.310Z,163.20
2018-01-11T00:16:00.790Z,233.03
2018-01-11T00:18:28.254Z,209.93
2018-01-11T00:20:55.752Z,153.63
2018-01-11T00:23:23.225Z,218.43
2018-01-11T00:25:50.691Z,180.50
2018-01-11T00:28:18.182Z,121.57
2018-01-11T00:30:45.654Z,160.77
2018-01-11T00:33:13.134Z,161.23
2018-01-11T00:35:40.626Z,137.07
2018-01-11T00:38:08.106Z,129.23
2018-01-11T00:40:35.586Z,126.37
2018-01-11T00:43:03.082Z,115.47
2018-01-11T00:45:30.546Z,111.33
2018-01-11T00:47:58.020Z,178.30
2018-01-11T00:50:25.522Z,120.53
2018-01-11T00:52:52.989Z,118.00
2018-01-11T00:55:20.454Z,134.97
2018-01-11T00:57:47.934Z,90.77
2018-01-11T01:00:15.395Z,88.37
2018-01-11T01:02:42.915Z,128.53
2018-01-11T01:05:10.460Z,85.17
2018-01-11T01:07:37.930Z,122.90
2018-01-11T01:10:05.425Z,94.93
2018-01-11T01:12:32.891Z,115.50
2018-01-11T01:15:00.354Z,178.70
2018-01-11T01:17:27.863Z,168.20
2018-01-11T01:19:55.334Z,119.70
2018-01-11T01:22:22.798Z,219.00
2018-01-11T01:24:50.352Z,135.83
2018-01-11T01:27:17.790Z,123.97
2018-01-11T01:29:45.258Z,123.67
2018-01-11T01:32:12.764Z,148.70
2018-01-11T01:34:40.243Z,129.50
2018-01-11T01:37:07.770Z,143.93
2018-01-11T01:39:35.269Z,133.70
2018-01-11T01:42:02.744Z,136.63
2018-01-11T01:44:30.235Z,121.90
2018-01-11T01:46:57.778Z,132.23
2018-01-11T01:49:25.267Z,147.13
2018-01-11T01:51:52.766Z,215.57
2018-01-11T01:54:20.294Z,169.27
2018-01-11T01:56:47.852Z,144.20
2018-01-11T01:59:15.335Z,135.80
2018-01-11T02:01:42.885Z,123.87
2018-01-11T02:04:10.373Z,107.70
2018-01-11T02:06:37.865Z,118.47
2018-01-11T02:09:05.373Z,211.03
2018-01-11T02:11:32.869Z,125.50
2018-01-11T02:14:00.382Z,117.60
2018-01-11T02:16:27.858Z,136.13
2018-01-11T02:18:55.347Z,122.87
2018-01-11T02:21:22.878Z,112.13
2018-01-11T02:23:50.350Z,90.40
2018-01-11T02:26:17.869Z,112.97
2018-01-11T02:28:45.390Z,114.07
2018-01-11T02:31:12.872Z,100.87
2018-01-11T02:33:40.351Z,99.43
2018-01-11T02:36:07.854Z,103.80
2018-01-11T02:38:35.326Z,113.07
2018-01-11T02:41:02.909Z,106.90
2018-01-11T02:43:30.428Z,106.50
2018-01-11T02:45:57.921Z,117.07
2018-01-11T02:48:25.446Z,95.60
2018-01-11T02:50:52.954Z,95.70
2018-01-11T02:53:20.461Z,95.63
2018-01-11T02:55:47.955Z,102.73
2018-01-11T02:58:15.528Z,94.50
2018-01-11T03:00:42.994Z,93.83
2018-01-11T03:03:10.500Z,94.80
2018-01-11T03:05:38.004Z,89.17
2018-01-11T03:08:05.493Z,84.07
2018-01-11T03:10:33.010Z,94.90
2018-01-11T03:13:00.496Z,105.03
2018-01-11T03:15:28.016Z,93.73
2018-01-11T03:17:55.508Z,101.13
2018-01-11T03:20:22.994Z,88.57
2018-01-11T03:22:50.487Z,95.67
2018-01-11T03:25:17.950Z,92.90
2018-01-11T03:27:45.430Z,87.13
2018-01-11T03:30:12.943Z,90.50
2018-01-11T03:32:40.446Z,94.90
2018-01-11T03:35:07.910Z,80.60
2018-01-11T03:37:35.563Z,85.63
2018-01-11T03:40:03.050Z,95.30
2018-01-11T03:42:30.522Z,89.33
2018-01-11T03:44:58.027Z,86.73
2018-01-11T03:47:25.511Z,89.77
2018-01-11T03:49:53.001Z,86.97
2018-01-11T03:52:20.483Z,77.70
2018-01-11T03:54:47.958Z,71.73
2018-01-11T03:57:15.446Z,80.30
2018-01-11T03:59:42.906Z,72.30
2018-01-11T04:02:10.381Z,72.27
2018-01-11T04:04:37.909Z,75.73
2018-01-11T04:07:05.396Z,78.27
2018-01-11T04:09:32.906Z,72.70
2018-01-11T04:12:00.389Z,70.53
2018-01-11T04:14:27.895Z,68.13
2018-01-11T04:16:55.367Z,73.87
2018-01-11T04:19:22.890Z,70.23
2018-01-11T04:21:50.363Z,71.07
2018-01-11T04:24:17.825Z,60.53
2018-01-11T04:26:45.326Z,66.67
2018-01-11T04:29:12.818Z,68.33
2018-01-11T04:31:40.318Z,68.00
2018-01-11T04:34:07.802Z,66.60
2018-01-11T04:36:35.290Z,83.83
2018-01-11T04:39:02.766Z,72.10
2018-01-11T04:41:30.259Z,87.37
2018-01-11T04:43:57.750Z,82.37
2018-01-11T04:46:25.222Z,94.33
2018-01-11T04:48:52.727Z,89.73
2018-01-11T04:51:20.194Z,68.10
2018-01-11T04:53:47.658Z,72.73
2018-01-11T04:56:15.143Z,78.93
2018-01-11T04:58:42.630Z,78.83
2018-01-11T05:01:10.141Z,73.93
2018-01-11T05:03:37.627Z,74.10
2018-01-11T05:06:05.090Z,64.70
2018-01-11T05:08:32.665Z,68.13
2018-01-11T05:11:00.171Z,71.30
2018-01-11T05:13:27.658Z,78.73
2018-01-11T05:15:55.142Z,74.17
2018-01-11T05:18:22.699Z,74.93
2018-01-11T05:20:50.213Z,73.00
2018-01-11T05:23:17.706Z,82.07
2018-01-11T05:25:45.217Z,70.67
2018-01-11T05:28:12.704Z,78.60
2018-01-11T05:30:40.199Z,71.10
2018-01-11T05:33:07.698Z,76.00
2018-01-11T05:35:35.192Z,80.37
2018-01-11T05:38:02.694Z,76.93
2018-01-11T05:40:30.201Z,70.73
2018-01-11T05:42:57.694Z,99.90
2018-01-11T05:47:59.143Z,117.40
2018-01-11T05:50:26.658Z,113.17
2018-01-11T05:52:54.168Z,120.83
2018-01-11T05:55:21.699Z,124.87
2018-01-11T05:57:50.895Z,129.87
2018-01-11T06:00:18.367Z,118.27
2018-01-11T06:02:45.826Z,108.43
2018-01-11T06:05:13.329Z,108.93
2018-01-11T06:07:40.793Z,108.63
2018-01-11T06:10:08.282Z,107.10
2018-01-11T06:12:35.776Z,121.23
2018-01-11T06:15:03.307Z,113.77
2018-01-11T06:17:30.797Z,104.70
2018-01-11T06:19:58.333Z,96.47
2018-01-11T06:22:25.814Z,111.73
2018-01-11T06:24:53.341Z,111.90
2018-01-11T06:27:20.831Z,120.67
2018-01-11T06:29:48.370Z,115.93
2018-01-11T06:32:15.906Z,110.57
2018-01-11T06:34:43.374Z,138.77
2018-01-11T06:37:10.863Z,123.60
2018-01-11T06:39:38.371Z,118.80
2018-01-11T06:42:05.996Z,103.90
2018-01-11T06:44:33.491Z,105.80
2018-01-11T06:47:01.059Z,104.70
2018-01-11T06:49:28.573Z,103.40
2018-01-11T06:51:56.042Z,105.70
2018-01-11T06:54:23.545Z,102.47
2018-01-11T06:56:51.078Z,94.77
2018-01-11T06:59:18.582Z,103.13
2018-01-11T07:01:46.094Z,101.57
2018-01-11T07:04:13.577Z,99.13
2018-01-11T07:06:41.046Z,90.87
2018-01-11T07:09:08.530Z,110.40
2018-01-11T07:11:36.018Z,99.07
2018-01-11T07:14:03.530Z,103.70
2018-01-11T07:16:31.005Z,109.63
2018-01-11T07:18:58.848Z,96.67
2018-01-11T07:21:26.343Z,96.63
2018-01-11T07:23:53.822Z,95.13
2018-01-11T07:26:21.296Z,102.23
2018-01-11T07:28:48.782Z,96.53
2018-01-11T07:31:16.342Z,104.53
2018-01-11T07:33:43.844Z,97.97
2018-01-11T07:36:11.357Z,93.47
2018-01-11T07:38:38.830Z,112.23
2018-01-11T07:41:06.362Z,92.90
2018-01-11T07:43:33.826Z,88.43
2018-01-11T07:46:01.324Z,89.37
2018-01-11T07:48:28.810Z,80.30
2018-01-11T07:50:56.305Z,93.00
2018-01-11T07:53:23.796Z,93.90
2018-01-11T07:55:51.290Z,99.17
2018-01-11T07:58:18.769Z,95.20
2018-01-11T08:00:46.257Z,101.07
2018-01-11T08:03:14.691Z,95.23
2018-01-11T08:05:42.169Z,100.60
2018-01-11T08:08:09.631Z,106.80
2018-01-11T08:10:37.138Z,99.60
2018-01-11T08:13:04.626Z,108.30
2018-01-11T08:15:32.444Z,115.80
2018-01-11T08:17:59.933Z,95.87
2018-01-11T08:20:27.430Z,83.23
2018-01-11T08:22:54.915Z,94.20
2018-01-11T08:25:22.398Z,97.37
2018-01-11T08:27:49.890Z,106.53
2018-01-11T08:30:17.350Z,86.17
2018-01-11T08:32:44.862Z,90.83
2018-01-11T08:35:12.345Z,92.90
2018-01-11T08:37:39.803Z,94.07
2018-01-11T08:40:07.332Z,88.77
2018-01-11T08:42:34.810Z,90.47
2018-01-11T08:45:02.266Z,89.63
2018-01-11T08:47:29.768Z,89.87
2018-01-11T08:49:57.251Z,107.50
2018-01-11T08:52:24.730Z,96.63
2018-01-11T08:54:52.198Z,96.67
2018-01-11T08:57:19.690Z,94.70
2018-01-11T08:59:47.206Z,111.27
2018-01-11T09:02:14.701Z,114.03
2018-01-11T09:04:42.198Z,115.00
2018-01-11T09:07:09.736Z,103.60
2018-01-11T09:09:37.200Z,106.90
2018-01-11T09:12:04.664Z,121.93
2018-01-11T09:14:32.172Z,105.50
2018-01-11T09:16:59.737Z,127.37
2018-01-11T09:19:27.202Z,135.77
2018-01-11T09:21:54.691Z,114.73
2018-01-11T09:24:22.235Z,105.40
2018-01-11T09:26:49.725Z,112.63
2018-01-11T09:29:17.218Z,101.43
2018-01-11T09:31:44.798Z,112.83
2018-01-11T09:34:12.258Z,107.37
2018-01-11T09:36:39.724Z,115.03
2018-01-11T09:39:07.220Z,114.20
2018-01-11T09:41:34.707Z,113.97
2018-01-11T09:44:02.174Z,117.87
2018-01-11T09:46:29.642Z,117.27
2018-01-11T09:48:57.165Z,116.43
2018-01-11T09:51:24.660Z,127.30
2018-01-11T09:53:52.175Z,107.60
2018-01-11T09:56:19.658Z,115.40
2018-01-11T09:58:47.158Z,130.77
2018-01-11T10:01:14.635Z,112.13
2018-01-11T10:03:42.125Z,109.83
2018-01-11T10:06:09.627Z,122.40
2018-01-11T10:08:37.093Z,115.10
2018-01-11T10:11:04.563Z,124.27
2018-01-11T10:13:32.078Z,106.33
2018-01-11T10:15:59.590Z,112.87
2018-01-11T10:18:27.075Z,126.73
2018-01-11T10:20:54.606Z,106.70
2018-01-11T10:23:22.151Z,125.80
2018-01-11T10:25:49.656Z,109.23
2018-01-11T10:28:17.155Z,112.40
2018-01-11T10:30:44.642Z,102.47
2018-01-11T10:33:12.178Z,105.50
2018-01-11T10:35:39.678Z,104.73
2018-01-11T10:38:07.173Z,99.33
2018-01-11T10:40:34.698Z,110.27
2018-01-11T10:43:02.162Z,112.97
2018-01-11T10:45:29.626Z,99.30
2018-01-11T10:47:57.138Z,103.83
2018-01-11T10:50:24.626Z,98.07
2018-01-11T10:52:52.096Z,99.93
2018-01-11T10:55:19.594Z,112.47
2018-01-11T10:57:47.142Z,95.10
2018-01-11T11:00:14.626Z,95.97
2018-01-11T11:02:47.872Z,100.83
2018-01-11T11:05:15.334Z,107.77
2018-01-11T11:07:42.842Z,96.93
2018-01-11T11:10:10.550Z,101.80
2018-01-11T11:12:38.037Z,77.83
2018-01-11T11:15:05.503Z,83.53
2018-01-11T11:17:33.030Z,84.00
2018-01-11T11:20:00.559Z,86.30
2018-01-11T11:22:28.048Z,105.80
2018-01-11T11:24:55.551Z,96.07
2018-01-11T11:27:23.030Z,97.03
2018-01-11T11:29:50.515Z,89.23
2018-01-11T11:32:18.034Z,84.83
2018-01-11T11:34:45.516Z,88.93
2018-01-11T11:37:12.983Z,85.77
2018-01-11T11:39:40.472Z,75.90
2018-01-11T11:42:07.957Z,94.80
2018-01-11T11:44:35.426Z,74.87
2018-01-11T11:47:02.915Z,85.00
2018-01-11T11:49:30.454Z,74.17
2018-01-11T11:51:57.930Z,72.47
2018-01-11T11:54:25.436Z,79.40
2018-01-11T11:56:52.908Z,77.47
2018-01-11T11:59:20.436Z,76.03
2018-01-11T12:01:47.934Z,78.93
2018-01-11T12:04:15.398Z,74.40
2018-01-11T12:06:42.899Z,74.43
2018-01-11T12:09:10.390Z,77.70
2018-01-11T12:11:37.913Z,85.90
2018-01-11T12:14:05.403Z,65.97
2018-01-11T12:16:32.941Z,85.60
2018-01-11T12:19:00.403Z,87.73
2018-01-11T12:21:27.891Z,83.17
2018-01-11T12:23:55.371Z,67.73
2018-01-11T12:26:22.870Z,72.63
2018-01-11T12:28:50.446Z,68.07
2018-01-11T12:31:17.911Z,69.17
2018-01-11T12:33:45.406Z,62.10
2018-01-11T12:36:12.899Z,60.80
2018-01-11T12:38:40.386Z,71.40
2018-01-11T12:41:07.875Z,66.70
2018-01-11T12:43:35.383Z,69.10
2018-01-11T12:46:02.866Z,69.27
2018-01-11T12:48:30.346Z,69.50
2018-01-11T12:50:57.845Z,76.53
2018-01-11T12:53:25.346Z,66.40
2018-01-11T12:55:52.842Z,64.50
2018-01-11T12:58:20.335Z,68.20
2018-01-11T13:00:47.842Z,66.40
2018-01-11T13:03:15.310Z,68.70
2018-01-11T13:05:42.851Z,72.60
2018-01-11T13:08:10.322Z,71.73
2018-01-11T13:10:37.796Z,67.40
2018-01-11T13:13:05.286Z,63.50
2018-01-11T13:15:32.795Z,59.27
2018-01-11T13:18:00.265Z,83.40
2018-01-11T13:20:27.790Z,63.77
2018-01-11T13:22:55.279Z,63.90
2018-01-11T13:25:22.769Z,74.20
2018-01-11T13:27:50.461Z,69.57
2018-01-11T13:30:17.931Z,66.27
2018-01-11T13:32:45.468Z,76.40
2018-01-11T13:35:12.963Z,71.37
2018-01-11T13:37:40.466Z,76.40
2018-01-11T13:40:07.939Z,76.97
2018-01-11T13:42:35.415Z,73.93
2018-01-11T13:45:02.879Z,72.57
2018-01-11T13:47:30.363Z,73.50
2018-01-11T13:49:57.882Z,77.13
2018-01-11T13:52:25.387Z,85.43
2018-01-11T13:54:52.875Z,77.00
2018-01-11T13:57:20.383Z,92.27
2018-01-11T13:59:47.852Z,70.10
2018-01-11T14:02:15.372Z,72.33
2018-01-11T14:04:42.862Z,81.67
2018-01-11T14:07:10.322Z,61.23
2018-01-11T14:09:37.839Z,76.93
2018-01-11T14:12:05.318Z,68.37
2018-01-11T14:14:32.833Z,75.00
2018-01-11T14:17:00.314Z,72.53
2018-01-11T14:19:27.835Z,74.23
2018-01-11T14:21:55.344Z,68.67
2018-01-11T14:24:22.871Z,67.73
2018-01-11T14:26:50.341Z,61.67
2018-01-11T14:29:17.813Z,59.77
2018-01-11T14:31:45.317Z,63.80
2018-01-11T14:34:12.804Z,67.10
2018-01-11T14:36:40.275Z,62.70
2018-01-11T14:39:07.898Z,59.87
2018-01-11T14:41:35.382Z,66.77
2018-01-11T14:44:02.875Z,54.27
2018-01-11T14:46:30.364Z,60.90
2018-01-11T14:48:57.871Z,55.03
2018-01-11T14:51:25.364Z,60.50
2018-01-11T14:53:52.926Z,66.20
2018-01-11T14:56:20.418Z,65.60
2018-01-11T14:58:47.921Z,53.63
2018-01-11T15:01:15.406Z,60.30
2018-01-11T15:03:42.922Z,51.93
2018-01-11T15:06:10.715Z,57.53
2018-01-11T15:08:38.198Z,52.87
2018-01-11T15:11:05.698Z,58.27
2018-01-11T15:13:33.186Z,71.53
2018-01-11T15:16:00.656Z,58.90
2018-01-11T15:18:28.154Z,56.40
2018-01-11T15:20:55.620Z,59.63
2018-01-11T15:23:23.122Z,58.90
2018-01-11T15:25:50.624Z,62.30
2018-01-11T15:28:18.086Z,65.50
2018-01-11T15:30:45.597Z,50.10
2018-01-11T15:33:13.085Z,48.90
2018-01-11T15:35:40.566Z,52.77
2018-01-11T15:38:08.063Z,58.30
2018-01-11T15:40:35.551Z,52.37
2018-01-11T15:43:03.104Z,52.57
2018-01-11T15:45:30.572Z,50.83
2018-01-11T15:47:58.415Z,48.33
2018-01-11T15:50:25.896Z,54.43
2018-01-11T15:52:53.402Z,53.73
2018-01-11T15:55:20.929Z,46.63
2018-01-11T15:57:48.414Z,50.37
2018-01-11T16:00:15.879Z,43.47
2018-01-11T16:02:43.405Z,48.03
2018-01-11T16:05:10.867Z,46.40
2018-01-11T16:07:38.351Z,48.90
2018-01-11T16:10:05.907Z,50.13
2018-01-11T16:12:33.402Z,45.87
2018-01-11T16:15:01.274Z,42.47
2018-01-11T16:17:28.791Z,51.57
2018-01-11T16:19:56.278Z,50.03
2018-01-11T16:22:23.768Z,51.93
2018-01-11T16:24:51.389Z,56.10
2018-01-11T16:27:18.880Z,49.10
2018-01-11T16:29:46.343Z,50.63
2018-01-11T16:32:13.874Z,64.00
2018-01-11T16:34:41.364Z,55.37
2018-01-11T16:37:08.874Z,49.10
2018-01-11T16:39:36.383Z,55.07
2018-01-11T16:42:03.958Z,53.23
2018-01-11T16:44:31.471Z,51.87
2018-01-11T16:46:58.991Z,49.70
2018-01-11T16:49:26.543Z,45.87
2018-01-11T16:51:54.007Z,44.60
2018-01-11T16:54:21.521Z,46.90
2018-01-11T16:56:48.994Z,48.73
2018-01-11T16:59:16.475Z,39.50
2018-01-11T17:01:43.979Z,47.07
2018-01-11T17:04:11.452Z,60.10
2018-01-11T17:06:38.911Z,56.60
2018-01-11T17:09:06.432Z,57.73
2018-01-11T17:11:33.966Z,64.73
2018-01-11T17:14:01.451Z,54.80
2018-01-11T17:16:28.957Z,62.90
2018-01-11T17:18:56.438Z,56.57
2018-01-11T17:21:24.542Z,56.17
2018-01-11T17:23:52.051Z,63.03
2018-01-11T17:26:19.532Z,65.50
2018-01-11T17:28:47.028Z,55.33
2018-01-11T17:31:14.564Z,65.30
2018-01-11T17:33:42.070Z,61.40
2018-01-11T17:36:09.561Z,53.47
2018-01-11T17:38:37.122Z,70.50
2018-01-11T17:41:04.711Z,68.10
2018-01-11T17:43:32.204Z,65.73
2018-01-11T17:45:59.822Z,72.37
2018-01-11T17:48:27.312Z,67.40
2018-01-11T17:50:54.787Z,67.87
2018-01-11T17:53:22.281Z,83.70
2018-01-11T17:55:49.767Z,77.67
2018-01-11T17:58:17.238Z,81.33
2018-01-11T18:00:44.742Z,76.03
2018-01-11T18:03:12.285Z,88.07
2018-01-11T18:05:39.753Z,109.93
2018-01-11T18:08:07.248Z,93.70
2018-01-11T18:10:34.799Z,94.03
2018-01-11T18:13:02.285Z,70.50
2018-01-11T18:15:29.804Z,97.93
2018-01-11T18:17:57.280Z,86.60
2018-01-11T18:20:24.768Z,85.73
2018-01-11T18:22:52.275Z,80.63
2018-01-11T18:25:19.756Z,88.03
2018-01-11T18:27:47.234Z,86.30
2018-01-11T18:30:14.727Z,90.00
2018-01-11T18:32:42.236Z,97.97
2018-01-11T18:35:09.714Z,86.80
2018-01-11T18:37:37.208Z,79.90
2018-01-11T18:40:04.682Z,89.03
2018-01-11T18:42:32.194Z,94.00
2018-01-11T18:44:59.689Z,104.20
2018-01-11T18:47:27.149Z,103.10
2018-01-11T18:49:54.656Z,113.07
2018-01-11T18:52:22.191Z,112.37
2018-01-11T18:54:49.841Z,95.53
2018-01-11T18:57:17.318Z,95.63
2018-01-11T18:59:44.806Z,102.53
2018-01-11T19:02:12.326Z,101.10
2018-01-11T19:04:39.824Z,101.13
2018-01-11T19:07:07.299Z,94.73
2018-01-11T19:09:34.824Z,113.10
2018-01-11T19:12:02.369Z,108.93
2018-01-11T19:14:29.866Z,113.63
2018-01-11T19:16:57.409Z,125.87
2018-01-11T19:19:24.889Z,106.17
2018-01-11T19:21:52.435Z,113.37
2018-01-11T19:24:19.932Z,93.27
2018-01-11T19:26:47.441Z,122.87
2018-01-11T19:29:14.911Z,117.07
2018-01-11T19:31:42.418Z,88.50
2018-01-11T19:34:09.901Z,113.70
2018-01-11T19:36:37.434Z,142.83
2018-01-11T19:39:04.903Z,178.93
2018-01-11T19:41:32.387Z,117.13
2018-01-11T19:43:59.910Z,133.63
2018-01-11T19:46:27.433Z,123.07
2018-01-11T19:48:54.954Z,110.20
2018-01-11T19:51:22.501Z,133.10
2018-01-11T19:53:49.979Z,107.20
2018-01-11T19:56:17.483Z,113.37
2018-01-11T19:58:44.994Z,115.67
2018-01-11T20:01:12.467Z,110.20
2018-01-11T20:03:39.931Z,108.30
2018-01-11T20:06:07.423Z,94.20
2018-01-11T20:08:34.915Z,102.23
2018-01-11T20:11:02.415Z,136.70
2018-01-11T20:13:29.910Z,116.67
2018-01-11T20:15:57.422Z,109.13
2018-01-11T20:18:24.963Z,133.70
2018-01-11T20:20:52.471Z,123.37
2018-01-11T20:23:19.980Z,131.23
2018-01-11T20:25:48.305Z,125.27
2018-01-11T20:28:15.820Z,118.00
2018-01-11T20:30:44.273Z,90.30
2018-01-11T20:33:11.750Z,119.20
2018-01-11T20:35:39.281Z,122.80
2018-01-11T20:38:06.761Z,117.43
2018-01-11T20:40:34.259Z,130.10
2018-01-11T20:43:01.766Z,120.37
2018-01-11T20:45:29.269Z,114.63
2018-01-11T20:47:57.480Z,136.70
2018-01-11T20:50:24.992Z,127.33
2018-01-11T20:52:52.484Z,143.83
2018-01-11T20:55:19.980Z,136.43
2018-01-11T20:57:47.464Z,140.80
2018-01-11T21:00:14.983Z,138.30
2018-01-11T21:02:42.460Z,125.27
2018-01-11T21:05:09.962Z,136.70
2018-01-11T21:07:37.496Z,139.10
2018-01-11T21:10:05.000Z,151.60
2018-01-11T21:12:32.471Z,140.73
2018-01-11T21:14:59.974Z,143.90
2018-01-11T21:17:27.573Z,124.97
2018-01-11T21:19:55.064Z,132.57
2018-01-11T21:22:22.562Z,144.93
2018-01-11T21:24:50.074Z,138.00
2018-01-11T21:27:17.574Z,160.97
2018-01-11T21:29:45.119Z,147.90
2018-01-11T21:32:12.609Z,137.90
2018-01-11T21:34:40.109Z,141.53
2018-01-11T21:37:07.605Z,145.60
2018-01-11T21:39:35.112Z,138.70
2018-01-11T21:42:02.621Z,150.40
2018-01-11T21:44:30.206Z,167.27
2018-01-11T21:46:57.701Z,183.93
2018-01-11T21:49:25.204Z,160.83
2018-01-11T21:51:52.731Z,136.63
2018-01-11T21:54:20.210Z,163.17
2018-01-11T21:56:47.687Z,168.73
2018-01-11T21:59:15.186Z,136.87
2018-01-11T22:01:42.738Z,163.10
2018-01-11T22:04:10.246Z,149.53
2018-01-11T22:06:37.763Z,152.60
2018-01-11T22:09:05.311Z,157.67
2018-01-11T22:11:32.782Z,149.87
2018-01-11T22:14:00.280Z,158.40
2018-01-11T22:16:27.774Z,153.47
2018-01-11T22:18:55.605Z,118.13
2018-01-11T22:21:23.111Z,153.67
2018-01-11T22:23:50.612Z,160.73
2018-01-11T22:26:18.120Z,167.20
2018-01-11T22:28:45.590Z,161.77
2018-01-11T22:31:13.058Z,154.50
2018-01-11T22:33:40.583Z,146.63
2018-01-11T22:36:08.088Z,153.63
2018-01-11T22:38:35.606Z,175.30
2018-01-11T22:41:03.093Z,166.90
2018-01-11T22:43:30.579Z,154.97
2018-01-11T22:45:58.075Z,155.47
2018-01-11T22:48:25.685Z,127.33
2018-01-11T22:50:53.186Z,136.53
2018-01-11T22:53:20.720Z,103.90
2018-01-11T22:55:48.204Z,121.27
2018-01-11T22:58:15.713Z,136.07
2018-01-11T23:00:43.339Z,138.70
2018-01-11T23:03:10.818Z,140.30
2018-01-11T23:05:38.278Z,141.33
2018-01-11T23:08:05.784Z,155.33
2018-01-11T23:10:33.339Z,171.03
2018-01-11T23:13:00.889Z,152.63
2018-01-11T23:15:28.397Z,142.07
2018-01-11T23:17:55.905Z,144.17
2018-01-11T23:20:23.379Z,123.77
2018-01-11T23:22:50.934Z,147.67
2018-01-11T23:25:18.425Z,161.40
2018-01-11T23:27:45.962Z,164.37
2018-01-11T23:30:13.549Z,173.53
2018-01-11T23:32:41.058Z,174.30
2018-01-11T23:35:08.610Z,172.93
2018-01-11T23:37:36.129Z,178.43
2018-01-11T23:40:03.607Z,166.03
2018-01-11T23:42:31.085Z,177.47
2018-01-11T23:44:58.609Z,162.33
2018-01-11T23:47:26.092Z,151.43
2018-01-11T23:49:53.579Z,163.30
2018-01-11T23:52:21.103Z,156.77
2018-01-11T23:54:48.584Z,154.07
2018-01-11T23:57:16.065Z,104.53
2018-01-11T23:59:43.601Z,159.20
